sensor_id;sensor_type;location;lat;lon;timestamp;P1;durP1;ratioP1;P2;durP2;ratioP2
63346;SDS011;49472;49.880;8.650;2022-07-06T00:01:46;15.07;;;14.18;;
63346;SDS011;49472;49.880;8.650;2022-07-06T00:04:11;16.15;;;14.63;;
63346;SDS011;49472;49.880;8.650;2022-07-06T00:06:37;14.63;;;13.65;;
63346;SDS011;49472;49.880;8.650;2022-07-06T00:09:03;15.57;;;14.20;;
63346;SDS011;49472;49.880;8.650;2022-07-06T00:11:29;16.20;;;15.00;;
63346;SDS011;49472;49.880;8.650;2022-07-06T00:13:55;15.77;;;14.63;;
63346;SDS011;49472;49.880;8.650;2022-07-06T00:16:21;15.82;;;14.82;;
63346;SDS011;49472;49.880;8.650;2022-07-06T00:18:47;18.17;;;15.55;;
63346;SDS011;49472;49.880;8.650;2022-07-06T00:21:12;17.10;;;16.00;;
63346;SDS011;49472;49.880;8.650;2022-07-06T00:23:38;16.90;;;15.48;;
63346;SDS011;49472;49.880;8.650;2022-07-06T00:26:03;24.10;;;15.80;;
63346;SDS011;49472;49.880;8.650;2022-07-06T00:28:28;16.52;;;15.30;;
63346;SDS011;49472;49.880;8.650;2022-07-06T00:30:54;16.67;;;15.67;;
63346;SDS011;49472;49.880;8.650;2022-07-06T00:33:20;16.80;;;15.40;;
63346;SDS011;49472;49.880;8.650;2022-07-06T00:35:45;17.10;;;15.50;;
63346;SDS011;49472;49.880;8.650;2022-07-06T00:38:11;17.03;;;15.60;;
63346;SDS011;49472;49.880;8.650;2022-07-06T00:40:36;17.53;;;16.03;;
63346;SDS011;49472;49.880;8.650;2022-07-06T00:43:02;17.93;;;16.40;;
63346;SDS011;49472;49.880;8.650;2022-07-06T00:45:27;17.40;;;16.13;;
63346;SDS011;49472;49.880;8.650;2022-07-06T00:47:53;18.47;;;16.93;;
63346;SDS011;49472;49.880;8.650;2022-07-06T00:50:18;16.83;;;15.57;;
63346;SDS011;49472;49.880;8.650;2022-07-06T00:55:13;16.73;;;15.73;;
63346;SDS011;49472;49.880;8.650;2022-07-06T00:57:39;17.00;;;15.80;;
63346;SDS011;49472;49.880;8.650;2022-07-06T01:00:07;16.77;;;15.60;;
63346;SDS011;49472;49.880;8.650;2022-07-06T01:02:35;18.73;;;17.27;;
63346;SDS011;49472;49.880;8.650;2022-07-06T01:05:03;16.20;;;14.77;;
63346;SDS011;49472;49.880;8.650;2022-07-06T01:07:30;17.50;;;15.90;;
63346;SDS011;49472;49.880;8.650;2022-07-06T01:09:56;18.27;;;16.97;;
63346;SDS011;49472;49.880;8.650;2022-07-06T01:12:21;18.03;;;16.83;;
63346;SDS011;49472;49.880;8.650;2022-07-06T01:14:48;17.63;;;16.33;;
63346;SDS011;49472;49.880;8.650;2022-07-06T01:17:15;19.70;;;17.80;;
63346;SDS011;49472;49.880;8.650;2022-07-06T01:19:41;17.17;;;15.73;;
63346;SDS011;49472;49.880;8.650;2022-07-06T01:22:06;17.70;;;16.60;;
63346;SDS011;49472;49.880;8.650;2022-07-06T01:24:36;18.10;;;16.63;;
63346;SDS011;49472;49.880;8.650;2022-07-06T01:27:03;17.77;;;16.47;;
63346;SDS011;49472;49.880;8.650;2022-07-06T01:29:30;19.10;;;17.33;;
63346;SDS011;49472;49.880;8.650;2022-07-06T01:31:56;18.27;;;16.90;;
63346;SDS011;49472;49.880;8.650;2022-07-06T01:34:22;17.93;;;16.33;;
63346;SDS011;49472;49.880;8.650;2022-07-06T01:36:47;17.97;;;16.80;;
63346;SDS011;49472;49.880;8.650;2022-07-06T01:39:13;18.00;;;16.80;;
63346;SDS011;49472;49.880;8.650;2022-07-06T01:41:39;18.47;;;16.87;;
63346;SDS011;49472;49.880;8.650;2022-07-06T01:44:05;18.20;;;16.80;;
63346;SDS011;49472;49.880;8.650;2022-07-06T01:46:30;18.97;;;17.47;;
63346;SDS011;49472;49.880;8.650;2022-07-06T01:48:56;18.87;;;17.30;;
63346;SDS011;49472;49.880;8.650;2022-07-06T01:51:22;18.20;;;16.80;;
63346;SDS011;49472;49.880;8.650;2022-07-06T01:53:49;17.77;;;16.67;;
63346;SDS011;49472;49.880;8.650;2022-07-06T01:56:14;18.43;;;16.90;;
63346;SDS011;49472;49.880;8.650;2022-07-06T01:58:40;18.20;;;16.67;;
63346;SDS011;49472;49.880;8.650;2022-07-06T02:01:09;17.67;;;16.37;;
63346;SDS011;49472;49.880;8.650;2022-07-06T02:03:35;17.20;;;15.70;;
63346;SDS011;49472;49.880;8.650;2022-07-06T02:06:02;17.30;;;16.00;;
63346;SDS011;49472;49.880;8.650;2022-07-06T02:08:28;17.60;;;16.50;;
63346;SDS011;49472;49.880;8.650;2022-07-06T02:10:53;17.20;;;16.10;;
63346;SDS011;49472;49.880;8.650;2022-07-06T02:13:19;18.10;;;16.80;;
63346;SDS011;49472;49.880;8.650;2022-07-06T02:15:44;18.30;;;16.53;;
63346;SDS011;49472;49.880;8.650;2022-07-06T02:18:09;17.73;;;16.50;;
63346;SDS011;49472;49.880;8.650;2022-07-06T02:20:35;18.33;;;16.60;;
63346;SDS011;49472;49.880;8.650;2022-07-06T02:23:00;18.20;;;16.30;;
63346;SDS011;49472;49.880;8.650;2022-07-06T02:25:25;18.17;;;16.80;;
63346;SDS011;49472;49.880;8.650;2022-07-06T02:27:51;17.23;;;15.93;;
63346;SDS011;49472;49.880;8.650;2022-07-06T02:30:16;18.17;;;16.77;;
63346;SDS011;49472;49.880;8.650;2022-07-06T02:32:42;17.47;;;15.87;;
63346;SDS011;49472;49.880;8.650;2022-07-06T02:35:07;17.73;;;16.53;;
63346;SDS011;49472;49.880;8.650;2022-07-06T02:37:33;17.80;;;16.60;;
63346;SDS011;49472;49.880;8.650;2022-07-06T02:39:58;17.93;;;16.53;;
63346;SDS011;49472;49.880;8.650;2022-07-06T02:42:23;17.93;;;16.70;;
63346;SDS011;49472;49.880;8.650;2022-07-06T02:44:49;17.53;;;16.13;;
63346;SDS011;49472;49.880;8.650;2022-07-06T02:47:17;21.23;;;16.57;;
63346;SDS011;49472;49.880;8.650;2022-07-06T02:49:42;17.50;;;16.10;;
63346;SDS011;49472;49.880;8.650;2022-07-06T02:52:07;17.83;;;16.43;;
63346;SDS011;49472;49.880;8.650;2022-07-06T02:54:32;17.20;;;15.80;;
63346;SDS011;49472;49.880;8.650;2022-07-06T02:56:58;19.03;;;16.80;;
63346;SDS011;49472;49.880;8.650;2022-07-06T02:59:23;16.50;;;15.20;;
63346;SDS011;49472;49.880;8.650;2022-07-06T03:01:49;17.33;;;16.13;;
63346;SDS011;49472;49.880;8.650;2022-07-06T03:04:14;17.33;;;16.13;;
63346;SDS011;49472;49.880;8.650;2022-07-06T03:06:39;17.80;;;15.97;;
63346;SDS011;49472;49.880;8.650;2022-07-06T03:09:05;18.90;;;17.53;;
63346;SDS011;49472;49.880;8.650;2022-07-06T03:11:30;17.57;;;16.30;;
63346;SDS011;49472;49.880;8.650;2022-07-06T03:13:55;18.37;;;16.27;;
63346;SDS011;49472;49.880;8.650;2022-07-06T03:16:21;17.57;;;16.43;;
63346;SDS011;49472;49.880;8.650;2022-07-06T03:18:46;19.50;;;16.80;;
63346;SDS011;49472;49.880;8.650;2022-07-06T03:21:11;16.27;;;15.17;;
63346;SDS011;49472;49.880;8.650;2022-07-06T03:23:37;16.70;;;15.60;;
63346;SDS011;49472;49.880;8.650;2022-07-06T03:26:02;17.10;;;15.80;;
63346;SDS011;49472;49.880;8.650;2022-07-06T03:28:27;16.60;;;15.47;;
63346;SDS011;49472;49.880;8.650;2022-07-06T03:30:53;17.90;;;16.47;;
63346;SDS011;49472;49.880;8.650;2022-07-06T03:33:18;17.43;;;15.73;;
63346;SDS011;49472;49.880;8.650;2022-07-06T03:35:43;18.17;;;16.97;;
63346;SDS011;49472;49.880;8.650;2022-07-06T03:38:09;17.50;;;16.23;;
63346;SDS011;49472;49.880;8.650;2022-07-06T03:40:34;17.27;;;16.17;;
63346;SDS011;49472;49.880;8.650;2022-07-06T03:42:59;16.90;;;15.57;;
63346;SDS011;49472;49.880;8.650;2022-07-06T03:45:25;17.17;;;16.07;;
63346;SDS011;49472;49.880;8.650;2022-07-06T03:47:50;17.23;;;15.67;;
63346;SDS011;49472;49.880;8.650;2022-07-06T03:50:16;17.87;;;16.47;;
63346;SDS011;49472;49.880;8.650;2022-07-06T03:52:41;18.53;;;16.93;;
63346;SDS011;49472;49.880;8.650;2022-07-06T03:55:07;17.60;;;16.20;;
63346;SDS011;49472;49.880;8.650;2022-07-06T03:57:37;18.03;;;16.27;;
63346;SDS011;49472;49.880;8.650;2022-07-06T04:00:03;17.50;;;15.97;;
63346;SDS011;49472;49.880;8.650;2022-07-06T04:02:29;17.67;;;15.90;;
63346;SDS011;49472;49.880;8.650;2022-07-06T04:04:55;17.60;;;16.40;;
63346;SDS011;49472;49.880;8.650;2022-07-06T04:07:20;16.33;;;15.03;;
63346;SDS011;49472;49.880;8.650;2022-07-06T04:09:46;18.03;;;16.60;;
63346;SDS011;49472;49.880;8.650;2022-07-06T04:12:11;17.50;;;15.80;;
63346;SDS011;49472;49.880;8.650;2022-07-06T04:14:37;19.07;;;16.37;;
63346;SDS011;49472;49.880;8.650;2022-07-06T04:17:02;17.30;;;16.07;;
63346;SDS011;49472;49.880;8.650;2022-07-06T04:20:00;18.37;;;16.00;;
63346;SDS011;49472;49.880;8.650;2022-07-06T04:22:26;18.20;;;16.30;;
63346;SDS011;49472;49.880;8.650;2022-07-06T04:24:51;16.87;;;15.77;;
63346;SDS011;49472;49.880;8.650;2022-07-06T04:27:17;17.30;;;15.93;;
63346;SDS011;49472;49.880;8.650;2022-07-06T04:29:42;17.93;;;16.43;;
63346;SDS011;49472;49.880;8.650;2022-07-06T04:32:07;16.77;;;15.47;;
63346;SDS011;49472;49.880;8.650;2022-07-06T04:34:33;17.47;;;16.07;;
63346;SDS011;49472;49.880;8.650;2022-07-06T04:36:58;16.27;;;15.27;;
63346;SDS011;49472;49.880;8.650;2022-07-06T04:39:24;17.53;;;16.10;;
63346;SDS011;49472;49.880;8.650;2022-07-06T04:41:49;17.00;;;15.70;;
63346;SDS011;49472;49.880;8.650;2022-07-06T04:44:14;18.23;;;16.57;;
63346;SDS011;49472;49.880;8.650;2022-07-06T04:46:40;17.00;;;15.60;;
63346;SDS011;49472;49.880;8.650;2022-07-06T04:49:05;17.40;;;16.00;;
63346;SDS011;49472;49.880;8.650;2022-07-06T04:51:31;29.80;;;17.47;;
63346;SDS011;49472;49.880;8.650;2022-07-06T04:53:57;17.63;;;16.30;;
63346;SDS011;49472;49.880;8.650;2022-07-06T04:56:22;17.53;;;16.10;;
63346;SDS011;49472;49.880;8.650;2022-07-06T04:58:47;17.50;;;16.20;;
63346;SDS011;49472;49.880;8.650;2022-07-06T05:01:13;17.50;;;15.70;;
63346;SDS011;49472;49.880;8.650;2022-07-06T05:03:38;17.30;;;15.97;;
63346;SDS011;49472;49.880;8.650;2022-07-06T05:06:05;16.90;;;15.70;;
63346;SDS011;49472;49.880;8.650;2022-07-06T05:08:32;18.13;;;16.53;;
63346;SDS011;49472;49.880;8.650;2022-07-06T05:10:58;17.43;;;15.90;;
63346;SDS011;49472;49.880;8.650;2022-07-06T05:13:23;17.60;;;16.00;;
63346;SDS011;49472;49.880;8.650;2022-07-06T05:15:48;17.47;;;16.13;;
63346;SDS011;49472;49.880;8.650;2022-07-06T05:18:14;21.57;;;17.00;;
63346;SDS011;49472;49.880;8.650;2022-07-06T05:20:39;17.20;;;15.37;;
63346;SDS011;49472;49.880;8.650;2022-07-06T05:23:05;17.63;;;16.03;;
63346;SDS011;49472;49.880;8.650;2022-07-06T05:25:30;17.00;;;15.90;;
63346;SDS011;49472;49.880;8.650;2022-07-06T05:27:56;18.37;;;16.67;;
63346;SDS011;49472;49.880;8.650;2022-07-06T05:30:21;17.57;;;16.30;;
63346;SDS011;49472;49.880;8.650;2022-07-06T05:32:47;17.43;;;16.03;;
63346;SDS011;49472;49.880;8.650;2022-07-06T05:35:12;17.17;;;16.07;;
63346;SDS011;49472;49.880;8.650;2022-07-06T05:37:38;16.77;;;15.67;;
63346;SDS011;49472;49.880;8.650;2022-07-06T05:40:03;18.93;;;16.53;;
63346;SDS011;49472;49.880;8.650;2022-07-06T05:42:29;19.20;;;15.33;;
63346;SDS011;49472;49.880;8.650;2022-07-06T05:44:55;18.03;;;16.57;;
63346;SDS011;49472;49.880;8.650;2022-07-06T05:47:21;20.00;;;16.50;;
63346;SDS011;49472;49.880;8.650;2022-07-06T05:50:06;17.97;;;16.33;;
63346;SDS011;49472;49.880;8.650;2022-07-06T05:52:38;17.00;;;15.90;;
63346;SDS011;49472;49.880;8.650;2022-07-06T05:55:04;18.03;;;16.23;;
63346;SDS011;49472;49.880;8.650;2022-07-06T05:57:30;18.00;;;16.23;;
63346;SDS011;49472;49.880;8.650;2022-07-06T05:59:56;18.03;;;16.63;;
63346;SDS011;49472;49.880;8.650;2022-07-06T06:02:21;17.37;;;16.10;;
63346;SDS011;49472;49.880;8.650;2022-07-06T06:04:47;16.60;;;15.30;;
63346;SDS011;49472;49.880;8.650;2022-07-06T06:07:12;16.23;;;15.23;;
63346;SDS011;49472;49.880;8.650;2022-07-06T06:09:37;17.83;;;16.00;;
63346;SDS011;49472;49.880;8.650;2022-07-06T06:12:03;21.90;;;17.27;;
63346;SDS011;49472;49.880;8.650;2022-07-06T06:14:28;17.40;;;16.10;;
63346;SDS011;49472;49.880;8.650;2022-07-06T06:16:54;18.33;;;17.00;;
63346;SDS011;49472;49.880;8.650;2022-07-06T06:19:19;19.10;;;17.37;;
63346;SDS011;49472;49.880;8.650;2022-07-06T06:21:44;18.73;;;16.87;;
63346;SDS011;49472;49.880;8.650;2022-07-06T06:24:10;17.70;;;16.10;;
63346;SDS011;49472;49.880;8.650;2022-07-06T06:26:35;19.93;;;17.17;;
63346;SDS011;49472;49.880;8.650;2022-07-06T06:29:00;20.03;;;17.80;;
63346;SDS011;49472;49.880;8.650;2022-07-06T06:31:26;21.90;;;16.93;;
63346;SDS011;49472;49.880;8.650;2022-07-06T06:33:51;18.53;;;16.93;;
63346;SDS011;49472;49.880;8.650;2022-07-06T06:36:18;18.67;;;17.07;;
63346;SDS011;49472;49.880;8.650;2022-07-06T06:38:43;20.60;;;16.70;;
63346;SDS011;49472;49.880;8.650;2022-07-06T06:41:09;19.17;;;17.03;;
63346;SDS011;49472;49.880;8.650;2022-07-06T06:43:34;19.40;;;17.60;;
63346;SDS011;49472;49.880;8.650;2022-07-06T06:45:59;19.73;;;16.60;;
63346;SDS011;49472;49.880;8.650;2022-07-06T06:48:25;25.77;;;17.33;;
63346;SDS011;49472;49.880;8.650;2022-07-06T06:50:50;19.03;;;17.60;;
63346;SDS011;49472;49.880;8.650;2022-07-06T06:53:16;19.27;;;17.43;;
63346;SDS011;49472;49.880;8.650;2022-07-06T06:55:41;18.60;;;16.80;;
63346;SDS011;49472;49.880;8.650;2022-07-06T06:58:06;18.47;;;16.87;;
63346;SDS011;49472;49.880;8.650;2022-07-06T07:00:32;17.80;;;16.20;;
63346;SDS011;49472;49.880;8.650;2022-07-06T07:02:57;18.40;;;16.73;;
63346;SDS011;49472;49.880;8.650;2022-07-06T07:05:23;22.70;;;17.67;;
63346;SDS011;49472;49.880;8.650;2022-07-06T07:07:48;18.53;;;16.83;;
63346;SDS011;49472;49.880;8.650;2022-07-06T07:10:14;19.07;;;17.27;;
63346;SDS011;49472;49.880;8.650;2022-07-06T07:12:45;21.90;;;16.80;;
63346;SDS011;49472;49.880;8.650;2022-07-06T07:15:11;19.83;;;16.70;;
63346;SDS011;49472;49.880;8.650;2022-07-06T07:17:37;18.23;;;16.40;;
63346;SDS011;49472;49.880;8.650;2022-07-06T07:20:04;18.23;;;16.33;;
63346;SDS011;49472;49.880;8.650;2022-07-06T07:22:29;18.50;;;16.57;;
63346;SDS011;49472;49.880;8.650;2022-07-06T07:24:55;18.00;;;16.37;;
63346;SDS011;49472;49.880;8.650;2022-07-06T07:27:20;19.90;;;16.27;;
63346;SDS011;49472;49.880;8.650;2022-07-06T07:29:45;27.75;;;16.67;;
63346;SDS011;49472;49.880;8.650;2022-07-06T07:32:11;17.63;;;15.40;;
63346;SDS011;49472;49.880;8.650;2022-07-06T07:34:36;18.02;;;16.42;;
63346;SDS011;49472;49.880;8.650;2022-07-06T07:37:02;19.13;;;17.42;;
63346;SDS011;49472;49.880;8.650;2022-07-06T07:39:27;22.52;;;15.90;;
63346;SDS011;49472;49.880;8.650;2022-07-06T07:41:53;17.37;;;15.93;;
63346;SDS011;49472;49.880;8.650;2022-07-06T07:44:18;18.30;;;17.00;;
63346;SDS011;49472;49.880;8.650;2022-07-06T07:46:44;18.42;;;16.67;;
63346;SDS011;49472;49.880;8.650;2022-07-06T07:49:09;17.13;;;15.63;;
63346;SDS011;49472;49.880;8.650;2022-07-06T07:51:34;17.45;;;15.95;;
63346;SDS011;49472;49.880;8.650;2022-07-06T07:54:00;18.00;;;16.60;;
63346;SDS011;49472;49.880;8.650;2022-07-06T07:56:25;26.73;;;17.10;;
63346;SDS011;49472;49.880;8.650;2022-07-06T07:58:50;19.38;;;17.58;;
63346;SDS011;49472;49.880;8.650;2022-07-06T08:01:16;17.83;;;16.13;;
63346;SDS011;49472;49.880;8.650;2022-07-06T08:03:42;19.30;;;17.33;;
63346;SDS011;49472;49.880;8.650;2022-07-06T08:06:07;18.40;;;16.10;;
63346;SDS011;49472;49.880;8.650;2022-07-06T08:08:32;18.07;;;16.57;;
63346;SDS011;49472;49.880;8.650;2022-07-06T08:10:58;19.10;;;17.20;;
63346;SDS011;49472;49.880;8.650;2022-07-06T08:13:23;18.00;;;16.43;;
63346;SDS011;49472;49.880;8.650;2022-07-06T08:15:48;18.08;;;16.77;;
63346;SDS011;49472;49.880;8.650;2022-07-06T08:18:14;21.23;;;16.90;;
63346;SDS011;49472;49.880;8.650;2022-07-06T08:20:39;21.83;;;16.42;;
63346;SDS011;49472;49.880;8.650;2022-07-06T08:23:04;16.55;;;15.45;;
63346;SDS011;49472;49.880;8.650;2022-07-06T08:25:30;16.27;;;15.15;;
63346;SDS011;49472;49.880;8.650;2022-07-06T08:27:56;17.85;;;16.38;;
63346;SDS011;49472;49.880;8.650;2022-07-06T08:30:21;17.40;;;15.90;;
63346;SDS011;49472;49.880;8.650;2022-07-06T08:32:47;17.90;;;16.30;;
63346;SDS011;49472;49.880;8.650;2022-07-06T08:35:12;17.10;;;15.95;;
63346;SDS011;49472;49.880;8.650;2022-07-06T08:37:38;17.47;;;16.10;;
63346;SDS011;49472;49.880;8.650;2022-07-06T08:40:04;17.27;;;15.77;;
63346;SDS011;49472;49.880;8.650;2022-07-06T08:42:30;18.17;;;16.57;;
63346;SDS011;49472;49.880;8.650;2022-07-06T08:45:05;17.30;;;15.93;;
63346;SDS011;49472;49.880;8.650;2022-07-06T08:47:31;17.73;;;16.20;;
63346;SDS011;49472;49.880;8.650;2022-07-06T08:49:59;18.20;;;16.67;;
63346;SDS011;49472;49.880;8.650;2022-07-06T08:52:28;18.63;;;16.83;;
63346;SDS011;49472;49.880;8.650;2022-07-06T08:54:53;17.40;;;15.73;;
63346;SDS011;49472;49.880;8.650;2022-07-06T08:57:19;18.37;;;16.87;;
63346;SDS011;49472;49.880;8.650;2022-07-06T08:59:44;17.80;;;16.20;;
63346;SDS011;49472;49.880;8.650;2022-07-06T09:02:10;17.52;;;16.27;;
63346;SDS011;49472;49.880;8.650;2022-07-06T09:04:36;18.27;;;16.60;;
63346;SDS011;49472;49.880;8.650;2022-07-06T09:07:02;20.55;;;15.50;;
63346;SDS011;49472;49.880;8.650;2022-07-06T09:09:28;18.10;;;16.60;;
63346;SDS011;49472;49.880;8.650;2022-07-06T09:11:57;16.80;;;15.48;;
63346;SDS011;49472;49.880;8.650;2022-07-06T09:14:23;22.63;;;17.30;;
63346;SDS011;49472;49.880;8.650;2022-07-06T09:16:52;17.02;;;15.73;;
63346;SDS011;49472;49.880;8.650;2022-07-06T09:19:27;17.55;;;15.93;;
63346;SDS011;49472;49.880;8.650;2022-07-06T09:21:53;17.42;;;15.63;;
63346;SDS011;49472;49.880;8.650;2022-07-06T09:24:19;17.57;;;16.17;;
63346;SDS011;49472;49.880;8.650;2022-07-06T09:26:44;17.67;;;16.02;;
63346;SDS011;49472;49.880;8.650;2022-07-06T09:29:12;17.42;;;15.18;;
63346;SDS011;49472;49.880;8.650;2022-07-06T09:31:37;17.38;;;15.98;;
63346;SDS011;49472;49.880;8.650;2022-07-06T09:34:04;17.40;;;15.95;;
63346;SDS011;49472;49.880;8.650;2022-07-06T09:41:50;16.50;;;14.95;;
63346;SDS011;49472;49.880;8.650;2022-07-06T09:44:21;24.42;;;14.95;;
63346;SDS011;49472;49.880;8.650;2022-07-06T09:46:48;16.83;;;15.30;;
63346;SDS011;49472;49.880;8.650;2022-07-06T09:49:17;16.95;;;15.65;;
63346;SDS011;49472;49.880;8.650;2022-07-06T09:51:51;19.48;;;14.93;;
63346;SDS011;49472;49.880;8.650;2022-07-06T09:54:19;17.58;;;16.10;;
63346;SDS011;49472;49.880;8.650;2022-07-06T09:56:46;16.70;;;15.40;;
63346;SDS011;49472;49.880;8.650;2022-07-06T09:59:21;16.35;;;15.35;;
63346;SDS011;49472;49.880;8.650;2022-07-06T10:01:53;16.52;;;15.15;;
63346;SDS011;49472;49.880;8.650;2022-07-06T10:04:20;16.30;;;15.10;;
63346;SDS011;49472;49.880;8.650;2022-07-06T10:06:46;16.40;;;15.07;;
63346;SDS011;49472;49.880;8.650;2022-07-06T10:09:13;16.95;;;15.32;;
63346;SDS011;49472;49.880;8.650;2022-07-06T10:11:40;16.15;;;15.10;;
63346;SDS011;49472;49.880;8.650;2022-07-06T10:14:07;16.33;;;15.20;;
63346;SDS011;49472;49.880;8.650;2022-07-06T10:16:36;16.50;;;15.18;;
63346;SDS011;49472;49.880;8.650;2022-07-06T10:19:04;21.08;;;14.57;;
63346;SDS011;49472;49.880;8.650;2022-07-06T10:21:31;16.20;;;15.02;;
63346;SDS011;49472;49.880;8.650;2022-07-06T10:24:01;16.05;;;14.73;;
63346;SDS011;49472;49.880;8.650;2022-07-06T10:26:28;16.33;;;14.57;;
63346;SDS011;49472;49.880;8.650;2022-07-06T10:28:55;15.93;;;14.45;;
63346;SDS011;49472;49.880;8.650;2022-07-06T10:31:23;15.90;;;14.55;;
63346;SDS011;49472;49.880;8.650;2022-07-06T10:33:49;15.23;;;14.25;;
63346;SDS011;49472;49.880;8.650;2022-07-06T10:36:17;16.38;;;15.07;;
63346;SDS011;49472;49.880;8.650;2022-07-06T10:38:42;14.93;;;13.93;;
63346;SDS011;49472;49.880;8.650;2022-07-06T10:41:13;15.55;;;14.35;;
63346;SDS011;49472;49.880;8.650;2022-07-06T10:43:43;15.30;;;14.25;;
63346;SDS011;49472;49.880;8.650;2022-07-06T10:46:11;16.52;;;15.05;;
63346;SDS011;49472;49.880;8.650;2022-07-06T10:48:39;14.38;;;13.43;;
63346;SDS011;49472;49.880;8.650;2022-07-06T10:51:06;14.63;;;13.50;;
63346;SDS011;49472;49.880;8.650;2022-07-06T10:53:34;14.73;;;13.45;;
63346;SDS011;49472;49.880;8.650;2022-07-06T10:56:05;14.82;;;13.82;;
63346;SDS011;49472;49.880;8.650;2022-07-06T10:58:46;15.23;;;14.20;;
63346;SDS011;49472;49.880;8.650;2022-07-06T11:01:16;15.68;;;14.48;;
63346;SDS011;49472;49.880;8.650;2022-07-06T11:03:49;14.27;;;13.25;;
63346;SDS011;49472;49.880;8.650;2022-07-06T11:06:31;15.13;;;13.93;;
63346;SDS011;49472;49.880;8.650;2022-07-06T11:08:59;14.73;;;13.75;;
63346;SDS011;49472;49.880;8.650;2022-07-06T11:13:59;15.50;;;14.30;;
63346;SDS011;49472;49.880;8.650;2022-07-06T11:16:26;15.40;;;14.23;;
63346;SDS011;49472;49.880;8.650;2022-07-06T11:19:03;14.85;;;13.65;;
63346;SDS011;49472;49.880;8.650;2022-07-06T11:24:03;13.93;;;12.93;;
63346;SDS011;49472;49.880;8.650;2022-07-06T11:26:30;14.60;;;13.55;;
63346;SDS011;49472;49.880;8.650;2022-07-06T11:28:57;14.55;;;13.57;;
63346;SDS011;49472;49.880;8.650;2022-07-06T11:31:23;14.27;;;13.20;;
63346;SDS011;49472;49.880;8.650;2022-07-06T11:33:49;14.57;;;13.55;;
63346;SDS011;49472;49.880;8.650;2022-07-06T11:36:15;13.93;;;13.00;;
63346;SDS011;49472;49.880;8.650;2022-07-06T11:38:41;14.85;;;13.95;;
63346;SDS011;49472;49.880;8.650;2022-07-06T11:41:07;15.60;;;14.05;;
63346;SDS011;49472;49.880;8.650;2022-07-06T11:43:33;17.70;;;13.75;;
63346;SDS011;49472;49.880;8.650;2022-07-06T11:45:58;14.43;;;13.43;;
63346;SDS011;49472;49.880;8.650;2022-07-06T11:48:24;14.27;;;13.27;;
63346;SDS011;49472;49.880;8.650;2022-07-06T11:51:02;13.15;;;12.45;;
63346;SDS011;49472;49.880;8.650;2022-07-06T11:53:28;14.82;;;13.93;;
63346;SDS011;49472;49.880;8.650;2022-07-06T11:55:54;14.90;;;13.68;;
63346;SDS011;49472;49.880;8.650;2022-07-06T11:58:21;15.50;;;13.90;;
63346;SDS011;49472;49.880;8.650;2022-07-06T12:01:04;14.90;;;13.82;;
63346;SDS011;49472;49.880;8.650;2022-07-06T12:03:31;14.23;;;13.02;;
63346;SDS011;49472;49.880;8.650;2022-07-06T12:05:57;15.30;;;13.77;;
63346;SDS011;49472;49.880;8.650;2022-07-06T12:08:23;14.23;;;12.82;;
63346;SDS011;49472;49.880;8.650;2022-07-06T12:10:49;13.18;;;12.15;;
63346;SDS011;49472;49.880;8.650;2022-07-06T12:13:14;13.77;;;12.90;;
63346;SDS011;49472;49.880;8.650;2022-07-06T12:15:39;13.57;;;12.68;;
63346;SDS011;49472;49.880;8.650;2022-07-06T12:18:05;13.73;;;12.93;;
63346;SDS011;49472;49.880;8.650;2022-07-06T12:20:30;26.55;;;14.48;;
63346;SDS011;49472;49.880;8.650;2022-07-06T12:23:05;13.65;;;12.90;;
63346;SDS011;49472;49.880;8.650;2022-07-06T12:25:32;14.27;;;13.32;;
63346;SDS011;49472;49.880;8.650;2022-07-06T12:27:58;14.60;;;13.35;;
63346;SDS011;49472;49.880;8.650;2022-07-06T12:30:23;14.18;;;13.15;;
63346;SDS011;49472;49.880;8.650;2022-07-06T12:35:40;13.73;;;12.63;;
63346;SDS011;49472;49.880;8.650;2022-07-06T12:38:06;12.80;;;12.00;;
63346;SDS011;49472;49.880;8.650;2022-07-06T12:40:32;13.02;;;12.20;;
63346;SDS011;49472;49.880;8.650;2022-07-06T12:42:57;12.00;;;11.40;;
63346;SDS011;49472;49.880;8.650;2022-07-06T12:45:29;12.70;;;11.77;;
63346;SDS011;49472;49.880;8.650;2022-07-06T12:50:34;12.75;;;12.00;;
63346;SDS011;49472;49.880;8.650;2022-07-06T12:53:02;12.60;;;11.70;;
63346;SDS011;49472;49.880;8.650;2022-07-06T12:55:29;11.88;;;11.15;;
63346;SDS011;49472;49.880;8.650;2022-07-06T12:57:55;11.93;;;11.13;;
63346;SDS011;49472;49.880;8.650;2022-07-06T13:00:22;13.07;;;12.27;;
63346;SDS011;49472;49.880;8.650;2022-07-06T13:02:49;12.68;;;11.45;;
63346;SDS011;49472;49.880;8.650;2022-07-06T13:05:22;12.35;;;11.75;;
63346;SDS011;49472;49.880;8.650;2022-07-06T13:07:54;11.50;;;10.82;;
63346;SDS011;49472;49.880;8.650;2022-07-06T13:10:22;11.00;;;10.35;;
63346;SDS011;49472;49.880;8.650;2022-07-06T13:12:48;11.98;;;11.38;;
63346;SDS011;49472;49.880;8.650;2022-07-06T13:15:15;11.77;;;10.90;;
63346;SDS011;49472;49.880;8.650;2022-07-06T13:17:41;12.20;;;11.50;;
63346;SDS011;49472;49.880;8.650;2022-07-06T13:20:08;12.23;;;11.52;;
63346;SDS011;49472;49.880;8.650;2022-07-06T13:22:35;12.88;;;11.52;;
63346;SDS011;49472;49.880;8.650;2022-07-06T13:25:02;12.00;;;11.30;;
63346;SDS011;49472;49.880;8.650;2022-07-06T13:27:28;11.57;;;10.88;;
63346;SDS011;49472;49.880;8.650;2022-07-06T13:29:54;11.63;;;11.02;;
63346;SDS011;49472;49.880;8.650;2022-07-06T13:32:19;11.32;;;10.73;;
63346;SDS011;49472;49.880;8.650;2022-07-06T13:34:45;12.45;;;11.10;;
63346;SDS011;49472;49.880;8.650;2022-07-06T13:37:10;11.70;;;10.70;;
63346;SDS011;49472;49.880;8.650;2022-07-06T13:39:36;11.40;;;10.73;;
63346;SDS011;49472;49.880;8.650;2022-07-06T13:42:01;10.23;;;9.73;;
63346;SDS011;49472;49.880;8.650;2022-07-06T13:44:27;11.40;;;10.70;;
63346;SDS011;49472;49.880;8.650;2022-07-06T13:46:52;11.57;;;10.68;;
63346;SDS011;49472;49.880;8.650;2022-07-06T13:49:18;10.80;;;10.20;;
63346;SDS011;49472;49.880;8.650;2022-07-06T13:51:43;10.23;;;9.80;;
63346;SDS011;49472;49.880;8.650;2022-07-06T13:54:09;12.85;;;10.32;;
63346;SDS011;49472;49.880;8.650;2022-07-06T13:56:36;10.68;;;9.80;;
63346;SDS011;49472;49.880;8.650;2022-07-06T13:59:03;21.20;;;10.10;;
63346;SDS011;49472;49.880;8.650;2022-07-06T14:01:29;10.38;;;9.77;;
63346;SDS011;49472;49.880;8.650;2022-07-06T14:03:54;10.32;;;9.73;;
63346;SDS011;49472;49.880;8.650;2022-07-06T14:06:19;10.38;;;9.77;;
63346;SDS011;49472;49.880;8.650;2022-07-06T14:08:46;11.02;;;10.20;;
63346;SDS011;49472;49.880;8.650;2022-07-06T14:11:11;10.63;;;9.93;;
63346;SDS011;49472;49.880;8.650;2022-07-06T14:13:37;11.02;;;10.32;;
63346;SDS011;49472;49.880;8.650;2022-07-06T14:16:05;15.02;;;10.68;;
63346;SDS011;49472;49.880;8.650;2022-07-06T14:18:31;10.75;;;10.25;;
63346;SDS011;49472;49.880;8.650;2022-07-06T14:20:57;9.82;;;9.43;;
63346;SDS011;49472;49.880;8.650;2022-07-06T14:23:23;11.10;;;10.27;;
63346;SDS011;49472;49.880;8.650;2022-07-06T14:25:49;10.52;;;10.02;;
63346;SDS011;49472;49.880;8.650;2022-07-06T14:28:15;11.27;;;10.57;;
63346;SDS011;49472;49.880;8.650;2022-07-06T14:30:42;10.95;;;10.35;;
63346;SDS011;49472;49.880;8.650;2022-07-06T14:33:09;12.90;;;11.65;;
63346;SDS011;49472;49.880;8.650;2022-07-06T14:35:40;10.63;;;9.88;;